Sineira — CUJG9 — position and weather

sailwx.info

Track history (hours):
 
Tides and Currents Weather Stations Pressure Air Temp Water Temp Dewpoint Dewpoint Depression Visibility Wind Speed Wind Dir Waves Ship Positions

Sineira

Last reported at 2018-Jun-21 11:56 UTC. Time now 2018-Jun-21 17:50 UTC.
Position N 37°57' W 008°52'.

Length 25 m.

Type: Fishing. MMSI: 263430540.

Date/timePositionNaut miles runAvg speedWind from/ knotsBaromVisibWave heightAir tempDewpointWater temp
2018-Jun-21 11:56N 37°57' W 008°52'0 0.2
2018-Jun-21 11:30N 37°57' W 008°52'0 0.0
2018-Jun-21 11:00N 37°57' W 008°52'0 0.1
2018-Jun-21 10:30N 37°57' W 008°52'0 0.0
2018-Jun-21 10:00N 37°57' W 008°52'0 0.3
2018-Jun-21 09:30N 37°57' W 008°52'0 0.3
2018-Jun-21 09:00N 37°57' W 008°52'1 2.4
2018-Jun-21 08:30N 37°56' W 008°53'3 6.5
2018-Jun-21 08:00N 37°59' W 008°55'0 0.1
2018-Jun-21 07:30N 37°59' W 008°55'0 0.3
2018-Jun-21 07:00N 37°59' W 008°55'3 5.7
2018-Jun-21 06:30N 37°57' W 008°52'0 0.4
2018-Jun-21 06:00N 37°57' W 008°52'0 0.0
2018-Jun-21 05:30N 37°57' W 008°52'0 0.0
2018-Jun-21 02:15N 37°57' W 008°52'0 0.0
2018-Jun-21 02:00N 37°57' W 008°52'1 2.7
2018-Jun-21 01:30N 37°57' W 008°54'5 9.8
2018-Jun-21 01:00N 38°02' W 008°52'1 2.1
2018-Jun-21 00:30N 38°02' W 008°51'0 0.3
2018-Jun-21 00:00N 38°02' W 008°51'0 0.4
2018-Jun-20 23:30N 38°02' W 008°51'0 0.1
2018-Jun-20 23:00N 38°02' W 008°51'0 0.1
2018-Jun-20 22:30N 38°02' W 008°50'2 3.4
2018-Jun-20 22:00N 38°01' W 008°52'4 8.8
2018-Jun-20 21:30N 37°57' W 008°54'2 3.1
2018-Jun-20 21:00N 37°57' W 008°52'0 0.0
2018-Jun-20 11:49N 37°57' W 008°52'0 0.5
2018-Jun-20 11:30N 37°57' W 008°52'0 0.0
2018-Jun-20 11:01N 37°57' W 008°52'0 0.0
2018-Jun-20 10:30N 37°57' W 008°52'0 0.0
2018-Jun-20 10:01N 37°57' W 008°52'0 0.6
2018-Jun-20 09:30N 37°57' W 008°52'3 5.7
2018-Jun-20 09:00N 37°60' W 008°53'5 9.7
2018-Jun-20 08:30N 38°04' W 008°50'5 9.5
2018-Jun-20 08:00N 38°09' W 008°48'3 5.9
2018-Jun-20 07:31N 38°11' W 008°49'4 7.9
2018-Jun-20 06:57N 38°16' W 008°49'0 0.4
2018-Jun-20 06:30N 38°16' W 008°49'0 0.1
2018-Jun-20 06:00N 38°16' W 008°49'0 0.1
2018-Jun-20 05:31N 38°16' W 008°49'0 0.1
2018-Jun-20 05:00N 38°16' W 008°49'2 3.1
2018-Jun-20 04:30N 38°16' W 008°48'4 8.2
2018-Jun-20 04:00N 38°12' W 008°47'2 3.8
2018-Jun-20 03:28N 38°10' W 008°49'2 5.1
2018-Jun-20 03:00N 38°08' W 008°50'3 6.2
2018-Jun-20 02:30N 38°05' W 008°50'0 0.1
2018-Jun-20 02:00N 38°05' W 008°50'0 0.3
2018-Jun-20 01:31N 38°05' W 008°50'1 3.0
2018-Jun-20 01:00N 38°06' W 008°49'1 1.7
2018-Jun-20 00:30N 38°06' W 008°50'3 6.6
2018-Jun-20 00:00N 38°02' W 008°51'0 0.3
2018-Jun-19 23:30N 38°02' W 008°51'0 0.2
2018-Jun-19 23:00N 38°02' W 008°50'1 2.0
2018-Jun-19 22:31N 38°02' W 008°52'3 5.6
2018-Jun-19 22:00N 37°60' W 008°53'3 5.5
2018-Jun-19 21:30N 37°57' W 008°54'1 2.9
2018-Jun-19 21:01N 37°57' W 008°52'0 0.0
2018-Jun-19 11:13N 37°57' W 008°52'0 0.0
2018-Jun-19 11:01N 37°57' W 008°52'0 0.0
2018-Jun-19 10:30N 37°57' W 008°52'0 0.0
2018-Jun-19 10:00N 37°57' W 008°52'0 0.0
2018-Jun-19 09:30N 37°57' W 008°52'0 0.0
2018-Jun-19 09:00N 37°57' W 008°52'0 0.5
2018-Jun-19 08:30N 37°57' W 008°52'4 8.5
2018-Jun-19 08:00N 37°53' W 008°52'5 9.2
2018-Jun-19 07:30N 37°48' W 008°50'5 9.5
2018-Jun-19 07:00N 37°44' W 008°50'1 1.5
2018-Jun-19 06:30N 37°43' W 008°50'0 0.1
2018-Jun-19 06:00N 37°43' W 008°50'0 0.5
2018-Jun-19 05:30N 37°43' W 008°50'3 6.6
2018-Jun-19 05:00N 37°46' W 008°50'510.5
2018-Jun-19 04:30N 37°51' W 008°52'611.2
2018-Jun-19 04:00N 37°57' W 008°54'510.7
2018-Jun-19 03:30N 38°02' W 008°51'1 2.9
2018-Jun-19 03:00N 38°03' W 008°50'0 0.1
2018-Jun-19 02:30N 38°03' W 008°50'0 0.1
2018-Jun-19 02:00N 38°03' W 008°50'0 0.3
2018-Jun-19 01:30N 38°03' W 008°50'2 4.2
2018-Jun-19 01:00N 38°05' W 008°51'2 3.6
2018-Jun-19 00:30N 38°03' W 008°51'0 0.2
2018-Jun-19 00:00N 38°03' W 008°51'0 0.7
2018-Jun-18 23:30N 38°03' W 008°51'4 8.7
2018-Jun-18 23:00N 37°59' W 008°55'4 8.6
2018-Jun-18 22:30N 37°55' W 008°53'4 7.3
2018-Jun-18 22:00N 37°54' W 008°49'4 7.6
2018-Jun-18 21:30N 37°57' W 008°52'0 0.0
2018-Jun-18 11:30N 37°57' W 008°52'0 0.2
2018-Jun-18 11:00N 37°57' W 008°52'0 0.0
2018-Jun-18 10:30N 37°57' W 008°52'0 0.0
2018-Jun-18 10:00N 37°57' W 008°52'0 0.0
2018-Jun-18 09:30N 37°57' W 008°52'3 5.1
2018-Jun-18 09:00N 37°55' W 008°52'510.1
2018-Jun-18 08:30N 37°50' W 008°52'0 0.3
2018-Jun-18 08:00N 37°49' W 008°52'0 0.4
2018-Jun-18 07:30N 37°50' W 008°52'0 0.8
2018-Jun-18 07:00N 37°50' W 008°52'3 6.4
2018-Jun-18 06:30N 37°47' W 008°50'0 0.2
2018-Jun-18 06:00N 37°47' W 008°50'0 0.3
2018-Jun-18 05:30N 37°47' W 008°50'4 8.2
2018-Jun-18 05:00N 37°43' W 008°50'4 7.9
2018-Jun-18 04:30N 37°39' W 008°50'4 8.6
2018-Jun-18 04:00N 37°44' W 008°50'4 7.7
2018-Jun-18 03:30N 37°47' W 008°50'4 8.4
2018-Jun-18 03:00N 37°52' W 008°52'5 9.6
2018-Jun-18 02:30N 37°56' W 008°54'4 8.2
2018-Jun-18 02:00N 38°00' W 008°53'1 1.2
2018-Jun-18 01:30N 38°01' W 008°53'3 6.0
2018-Jun-18 01:00N 38°03' W 008°52'4 8.9
2018-Jun-18 00:30N 38°08' W 008°50'4 8.9
2018-Jun-18 00:00N 38°12' W 008°50'1 2.7
2018-Jun-17 23:30N 38°11' W 008°49'3 6.8
2018-Jun-17 23:00N 38°08' W 008°50'3 6.6
2018-Jun-17 22:30N 38°05' W 008°50'4 7.6
2018-Jun-17 22:00N 38°01' W 008°51'4 7.9
2018-Jun-17 21:30N 37°58' W 008°55'3 5.2
2018-Jun-17 21:00N 37°57' W 008°52'  
2018-Jun-15 09:11N 37°57' W 008°52'0 0.0
2018-Jun-15 09:00N 37°57' W 008°52'0 0.2
2018-Jun-15 08:30N 37°57' W 008°52'0 0.0
2018-Jun-15 08:00N 37°57' W 008°52'1 2.3
2018-Jun-15 07:30N 37°56' W 008°53'5 9.3
2018-Jun-15 07:00N 38°01' W 008°52'5 9.9
2018-Jun-15 06:30N 38°06' W 008°50'5 9.6
2018-Jun-15 06:00N 38°10' W 008°49'5 9.1
2018-Jun-15 05:30N 38°15' W 008°49'4 7.5
2018-Jun-15 04:58N 38°19' W 008°50'0 0.3
2018-Jun-15 04:28N 38°19' W 008°49'0 0.3
2018-Jun-15 04:00N 38°19' W 008°49'1 1.7
2018-Jun-15 03:30N 38°18' W 008°49'2 4.0
2018-Jun-15 02:55N 38°16' W 008°50'3 6.5
2018-Jun-15 02:30N 38°13' W 008°49'3 6.7
2018-Jun-15 02:00N 38°10' W 008°50'3 6.3
2018-Jun-15 01:30N 38°07' W 008°50'2 4.4
2018-Jun-15 01:00N 38°05' W 008°50'0 0.4
2018-Jun-15 00:30N 38°05' W 008°50'0 0.0
2018-Jun-15 00:00N 38°05' W 008°50'1 1.8
2018-Jun-14 23:30N 38°04' W 008°51'2 4.2
2018-Jun-14 23:00N 38°02' W 008°51'1 1.8
2018-Jun-14 22:30N 38°03' W 008°51'2 4.9
2018-Jun-14 22:00N 38°01' W 008°53'4 7.8
2018-Jun-14 21:30N 37°57' W 008°55'2 0.2
2018-Jun-14 09:51N 37°57' W 008°52'0 0.5
2018-Jun-14 09:30N 37°57' W 008°52'0 0.0
2018-Jun-14 09:00N 37°57' W 008°52'4 7.5
2018-Jun-14 08:30N 37°53' W 008°51'3 6.2
2018-Jun-14 08:00N 37°50' W 008°52'3 6.6
2018-Jun-14 07:30N 37°47' W 008°51'4 8.1
2018-Jun-14 07:00N 37°43' W 008°50'2 4.6
2018-Jun-14 06:30N 37°41' W 008°50'0 0.1
2018-Jun-14 06:00N 37°41' W 008°50'0 0.7
2018-Jun-14 05:30N 37°41' W 008°50'1 2.7
2018-Jun-14 05:00N 37°39' W 008°50'3 7.0
2018-Jun-14 04:30N 37°43' W 008°50'510.6
2018-Jun-14 04:00N 37°48' W 008°51'611.4
2018-Jun-14 03:30N 37°54' W 008°51'4 7.4
2018-Jun-14 03:01N 37°57' W 008°52'1 2.8
2018-Jun-14 02:30N 37°58' W 008°54'510.3
2018-Jun-14 02:00N 38°03' W 008°50'3 5.5
2018-Jun-14 01:30N 38°05' W 008°50'0 0.8
2018-Jun-14 00:59N 38°05' W 008°50'0 0.1
2018-Jun-14 00:31N 38°05' W 008°50'0 0.3
2018-Jun-14 00:01N 38°05' W 008°50'1 1.4
2018-Jun-13 23:30N 38°05' W 008°51'4 7.4
2018-Jun-13 23:01N 38°02' W 008°53'4 7.9
2018-Jun-13 22:30N 37°58' W 008°55'3 5.7
2018-Jun-13 22:00N 37°57' W 008°52'0 0.0
2018-Jun-13 12:07N 37°57' W 008°52'0 0.0
2018-Jun-13 12:00N 37°57' W 008°52'0 0.2
2018-Jun-13 11:30N 37°57' W 008°52'0 0.0
2018-Jun-13 11:01N 37°57' W 008°52'0 0.0
2018-Jun-13 10:30N 37°57' W 008°52'1 2.7
2018-Jun-13 10:01N 37°56' W 008°54'3 6.0
2018-Jun-13 09:30N 37°59' W 008°55'0 0.3
2018-Jun-13 09:00N 37°59' W 008°55'1 2.4
2018-Jun-13 08:30N 38°00' W 008°54'0 0.5
2018-Jun-13 08:01N 38°00' W 008°54'0 0.4
2018-Jun-13 07:31N 38°00' W 008°54'0 0.1
2018-Jun-13 07:00N 38°00' W 008°54'2 3.8
2018-Jun-13 06:31N 38°02' W 008°53'5 9.4
2018-Jun-13 06:00N 38°06' W 008°50'4 7.1
2018-Jun-13 05:31N 38°09' W 008°49'2 3.5
2018-Jun-13 05:00N 38°11' W 008°49'5 9.2
2018-Jun-13 04:30N 38°16' W 008°48'3 5.1
2018-Jun-13 03:56N 38°17' W 008°51'3 7.5
2018-Jun-13 03:30N 38°14' W 008°49'2 5.1
2018-Jun-13 03:00N 38°12' W 008°49'1 2.0
2018-Jun-13 02:31N 38°11' W 008°48'4 7.9
2018-Jun-13 02:01N 38°07' W 008°49'4 8.6
2018-Jun-13 01:31N 38°03' W 008°50'4 7.9
2018-Jun-13 01:01N 37°60' W 008°53'3 6.7
2018-Jun-13 00:31N 37°57' W 008°54'2 3.0
2018-Jun-13 00:01N 37°57' W 008°52'0 0.0
2018-Jun-12 23:30N 37°57' W 008°52'0 0.0
2018-Jun-12 23:00N 37°57' W 008°52'0 0.0
2018-Jun-12 11:35N 37°57' W 008°52'0 0.1
2018-Jun-12 11:31N 37°57' W 008°52'0 0.3
2018-Jun-12 11:00N 37°57' W 008°52'0 0.0
2018-Jun-12 10:31N 37°57' W 008°52'4 8.7
2018-Jun-12 10:01N 37°53' W 008°52'4 7.7
2018-Jun-12 09:30N 37°49' W 008°52'1 1.8
2018-Jun-12 09:00N 37°50' W 008°52'0 0.3
2018-Jun-12 08:30N 37°50' W 008°52'0 0.2
2018-Jun-12 08:00N 37°50' W 008°52'0 0.6
2018-Jun-12 07:30N 37°50' W 008°52'1 1.7
2018-Jun-12 07:01N 37°49' W 008°52'2 3.3
2018-Jun-12 06:30N 37°47' W 008°51'5 9.5
2018-Jun-12 06:00N 37°43' W 008°50'1 1.3
2018-Jun-12 05:30N 37°42' W 008°51'2 3.9
2018-Jun-12 05:00N 37°44' W 008°50'2 4.7
2018-Jun-12 04:30N 37°42' W 008°51'2 3.3
2018-Jun-12 04:01N 37°40' W 008°51'1 1.4
2018-Jun-12 03:31N 37°40' W 008°50'4 7.6
2018-Jun-12 03:01N 37°44' W 008°50'4 7.9
2018-Jun-12 02:30N 37°48' W 008°50'4 7.8
2018-Jun-12 02:00N 37°51' W 008°52'4 8.2
2018-Jun-12 01:30N 37°55' W 008°53'2 3.7
2018-Jun-12 01:00N 37°57' W 008°52'0 0.0
2018-Jun-12 00:31N 37°57' W 008°52'0 0.0
2018-Jun-12 00:00N 37°57' W 008°52'0 0.0
2018-Jun-11 23:31N 37°57' W 008°52'0 0.0
2018-Jun-11 23:00N 37°57' W 008°52'0 0.0
2018-Jun-11 22:30N 37°57' W 008°52'0 0.0
2018-Jun-11 22:00N 37°57' W 008°52'0 0.0
2018-Jun-11 21:30N 37°57' W 008°52'0 0.0
2018-Jun-11 21:00N 37°57' W 008°52'  
Track history (hours):
 
Tides and Currents Weather Stations Pressure Air Temp Water Temp Dewpoint Dewpoint Depression Visibility Wind Speed Wind Dir Waves Ship Positions

Sineira

Last reported at 2018-Jun-21 11:56 UTC. Time now 2018-Jun-21 17:50 UTC.
Position N 37°57' W 008°52'.

Length 25 m.

Type: Fishing. MMSI: 263430540.

Date/timePositionNaut miles runAvg speedWind from/ knotsBaromVisibWave heightAir tempDewpointWater temp
2018-Jun-21 11:56N 37°57' W 008°52'0 0.2
2018-Jun-21 11:30N 37°57' W 008°52'0 0.0
2018-Jun-21 11:00N 37°57' W 008°52'0 0.1
2018-Jun-21 10:30N 37°57' W 008°52'0 0.0
2018-Jun-21 10:00N 37°57' W 008°52'0 0.3
2018-Jun-21 09:30N 37°57' W 008°52'0 0.3
2018-Jun-21 09:00N 37°57' W 008°52'1 2.4
2018-Jun-21 08:30N 37°56' W 008°53'3 6.5
2018-Jun-21 08:00N 37°59' W 008°55'0 0.1
2018-Jun-21 07:30N 37°59' W 008°55'0 0.3
2018-Jun-21 07:00N 37°59' W 008°55'3 5.7
2018-Jun-21 06:30N 37°57' W 008°52'0 0.4
2018-Jun-21 06:00N 37°57' W 008°52'0 0.0
2018-Jun-21 05:30N 37°57' W 008°52'0 0.0
2018-Jun-21 02:15N 37°57' W 008°52'0 0.0
2018-Jun-21 02:00N 37°57' W 008°52'1 2.7
2018-Jun-21 01:30N 37°57' W 008°54'5 9.8
2018-Jun-21 01:00N 38°02' W 008°52'1 2.1
2018-Jun-21 00:30N 38°02' W 008°51'0 0.3
2018-Jun-21 00:00N 38°02' W 008°51'0 0.4
2018-Jun-20 23:30N 38°02' W 008°51'0 0.1
2018-Jun-20 23:00N 38°02' W 008°51'0 0.1
2018-Jun-20 22:30N 38°02' W 008°50'2 3.4
2018-Jun-20 22:00N 38°01' W 008°52'4 8.8
2018-Jun-20 21:30N 37°57' W 008°54'2 3.1
2018-Jun-20 21:00N 37°57' W 008°52'0 0.0
2018-Jun-20 11:49N 37°57' W 008°52'0 0.5
2018-Jun-20 11:30N 37°57' W 008°52'0 0.0
2018-Jun-20 11:01N 37°57' W 008°52'0 0.0
2018-Jun-20 10:30N 37°57' W 008°52'0 0.0
2018-Jun-20 10:01N 37°57' W 008°52'0 0.6
2018-Jun-20 09:30N 37°57' W 008°52'3 5.7
2018-Jun-20 09:00N 37°60' W 008°53'5 9.7
2018-Jun-20 08:30N 38°04' W 008°50'5 9.5
2018-Jun-20 08:00N 38°09' W 008°48'3 5.9
2018-Jun-20 07:31N 38°11' W 008°49'4 7.9
2018-Jun-20 06:57N 38°16' W 008°49'0 0.4
2018-Jun-20 06:30N 38°16' W 008°49'0 0.1
2018-Jun-20 06:00N 38°16' W 008°49'0 0.1
2018-Jun-20 05:31N 38°16' W 008°49'0 0.1
2018-Jun-20 05:00N 38°16' W 008°49'2 3.1
2018-Jun-20 04:30N 38°16' W 008°48'4 8.2
2018-Jun-20 04:00N 38°12' W 008°47'2 3.8
2018-Jun-20 03:28N 38°10' W 008°49'2 5.1
2018-Jun-20 03:00N 38°08' W 008°50'3 6.2
2018-Jun-20 02:30N 38°05' W 008°50'0 0.1
2018-Jun-20 02:00N 38°05' W 008°50'0 0.3
2018-Jun-20 01:31N 38°05' W 008°50'1 3.0
2018-Jun-20 01:00N 38°06' W 008°49'1 1.7
2018-Jun-20 00:30N 38°06' W 008°50'3 6.6
2018-Jun-20 00:00N 38°02' W 008°51'0 0.3
2018-Jun-19 23:30N 38°02' W 008°51'0 0.2
2018-Jun-19 23:00N 38°02' W 008°50'1 2.0
2018-Jun-19 22:31N 38°02' W 008°52'3 5.6
2018-Jun-19 22:00N 37°60' W 008°53'3 5.5
2018-Jun-19 21:30N 37°57' W 008°54'1 2.9
2018-Jun-19 21:01N 37°57' W 008°52'0 0.0
2018-Jun-19 11:13N 37°57' W 008°52'0 0.0
2018-Jun-19 11:01N 37°57' W 008°52'0 0.0
2018-Jun-19 10:30N 37°57' W 008°52'0 0.0
2018-Jun-19 10:00N 37°57' W 008°52'0 0.0
2018-Jun-19 09:30N 37°57' W 008°52'0 0.0
2018-Jun-19 09:00N 37°57' W 008°52'0 0.5
2018-Jun-19 08:30N 37°57' W 008°52'4 8.5
2018-Jun-19 08:00N 37°53' W 008°52'5 9.2
2018-Jun-19 07:30N 37°48' W 008°50'5 9.5
2018-Jun-19 07:00N 37°44' W 008°50'1 1.5
2018-Jun-19 06:30N 37°43' W 008°50'0 0.1
2018-Jun-19 06:00N 37°43' W 008°50'0 0.5
2018-Jun-19 05:30N 37°43' W 008°50'3 6.6
2018-Jun-19 05:00N 37°46' W 008°50'510.5
2018-Jun-19 04:30N 37°51' W 008°52'611.2
2018-Jun-19 04:00N 37°57' W 008°54'510.7
2018-Jun-19 03:30N 38°02' W 008°51'1 2.9
2018-Jun-19 03:00N 38°03' W 008°50'0 0.1
2018-Jun-19 02:30N 38°03' W 008°50'0 0.1
2018-Jun-19 02:00N 38°03' W 008°50'0 0.3
2018-Jun-19 01:30N 38°03' W 008°50'2 4.2
2018-Jun-19 01:00N 38°05' W 008°51'2 3.6
2018-Jun-19 00:30N 38°03' W 008°51'0 0.2
2018-Jun-19 00:00N 38°03' W 008°51'0 0.7
2018-Jun-18 23:30N 38°03' W 008°51'4 8.7
2018-Jun-18 23:00N 37°59' W 008°55'4 8.6
2018-Jun-18 22:30N 37°55' W 008°53'4 7.3
2018-Jun-18 22:00N 37°54' W 008°49'4 7.6
2018-Jun-18 21:30N 37°57' W 008°52'0 0.0
2018-Jun-18 11:30N 37°57' W 008°52'0 0.2
2018-Jun-18 11:00N 37°57' W 008°52'0 0.0
2018-Jun-18 10:30N 37°57' W 008°52'0 0.0
2018-Jun-18 10:00N 37°57' W 008°52'0 0.0
2018-Jun-18 09:30N 37°57' W 008°52'3 5.1
2018-Jun-18 09:00N 37°55' W 008°52'510.1
2018-Jun-18 08:30N 37°50' W 008°52'0 0.3
2018-Jun-18 08:00N 37°49' W 008°52'0 0.4
2018-Jun-18 07:30N 37°50' W 008°52'0 0.8
2018-Jun-18 07:00N 37°50' W 008°52'3 6.4
2018-Jun-18 06:30N 37°47' W 008°50'0 0.2
2018-Jun-18 06:00N 37°47' W 008°50'0 0.3
2018-Jun-18 05:30N 37°47' W 008°50'4 8.2
2018-Jun-18 05:00N 37°43' W 008°50'4 7.9
2018-Jun-18 04:30N 37°39' W 008°50'4 8.6
2018-Jun-18 04:00N 37°44' W 008°50'4 7.7
2018-Jun-18 03:30N 37°47' W 008°50'4 8.4
2018-Jun-18 03:00N 37°52' W 008°52'5 9.6
2018-Jun-18 02:30N 37°56' W 008°54'4 8.2
2018-Jun-18 02:00N 38°00' W 008°53'1 1.2
2018-Jun-18 01:30N 38°01' W 008°53'3 6.0
2018-Jun-18 01:00N 38°03' W 008°52'4 8.9
2018-Jun-18 00:30N 38°08' W 008°50'4 8.9
2018-Jun-18 00:00N 38°12' W 008°50'1 2.7
2018-Jun-17 23:30N 38°11' W 008°49'3 6.8
2018-Jun-17 23:00N 38°08' W 008°50'3 6.6
2018-Jun-17 22:30N 38°05' W 008°50'4 7.6
2018-Jun-17 22:00N 38°01' W 008°51'4 7.9
2018-Jun-17 21:30N 37°58' W 008°55'3 5.2
2018-Jun-17 21:00N 37°57' W 008°52'  
2018-Jun-15 09:11N 37°57' W 008°52'0 0.0
2018-Jun-15 09:00N 37°57' W 008°52'0 0.2
2018-Jun-15 08:30N 37°57' W 008°52'0 0.0
2018-Jun-15 08:00N 37°57' W 008°52'1 2.3
2018-Jun-15 07:30N 37°56' W 008°53'5 9.3
2018-Jun-15 07:00N 38°01' W 008°52'5 9.9
2018-Jun-15 06:30N 38°06' W 008°50'5 9.6
2018-Jun-15 06:00N 38°10' W 008°49'5 9.1
2018-Jun-15 05:30N 38°15' W 008°49'4 7.5
2018-Jun-15 04:58N 38°19' W 008°50'0 0.3
2018-Jun-15 04:28N 38°19' W 008°49'0 0.3
2018-Jun-15 04:00N 38°19' W 008°49'1 1.7
2018-Jun-15 03:30N 38°18' W 008°49'2 4.0
2018-Jun-15 02:55N 38°16' W 008°50'3 6.5
2018-Jun-15 02:30N 38°13' W 008°49'3 6.7
2018-Jun-15 02:00N 38°10' W 008°50'3 6.3
2018-Jun-15 01:30N 38°07' W 008°50'2 4.4
2018-Jun-15 01:00N 38°05' W 008°50'0 0.4
2018-Jun-15 00:30N 38°05' W 008°50'0 0.0
2018-Jun-15 00:00N 38°05' W 008°50'1 1.8
2018-Jun-14 23:30N 38°04' W 008°51'2 4.2
2018-Jun-14 23:00N 38°02' W 008°51'1 1.8
2018-Jun-14 22:30N 38°03' W 008°51'2 4.9
2018-Jun-14 22:00N 38°01' W 008°53'4 7.8
2018-Jun-14 21:30N 37°57' W 008°55'2 0.2
2018-Jun-14 09:51N 37°57' W 008°52'0 0.5
2018-Jun-14 09:30N 37°57' W 008°52'0 0.0
2018-Jun-14 09:00N 37°57' W 008°52'4 7.5
2018-Jun-14 08:30N 37°53' W 008°51'3 6.2
2018-Jun-14 08:00N 37°50' W 008°52'3 6.6
2018-Jun-14 07:30N 37°47' W 008°51'4 8.1
2018-Jun-14 07:00N 37°43' W 008°50'2 4.6
2018-Jun-14 06:30N 37°41' W 008°50'0 0.1
2018-Jun-14 06:00N 37°41' W 008°50'0 0.7
2018-Jun-14 05:30N 37°41' W 008°50'1 2.7
2018-Jun-14 05:00N 37°39' W 008°50'3 7.0
2018-Jun-14 04:30N 37°43' W 008°50'510.6
2018-Jun-14 04:00N 37°48' W 008°51'611.4
2018-Jun-14 03:30N 37°54' W 008°51'4 7.4
2018-Jun-14 03:01N 37°57' W 008°52'1 2.8
2018-Jun-14 02:30N 37°58' W 008°54'510.3
2018-Jun-14 02:00N 38°03' W 008°50'3 5.5
2018-Jun-14 01:30N 38°05' W 008°50'0 0.8
2018-Jun-14 00:59N 38°05' W 008°50'0 0.1
2018-Jun-14 00:31N 38°05' W 008°50'0 0.3
2018-Jun-14 00:01N 38°05' W 008°50'1 1.4
2018-Jun-13 23:30N 38°05' W 008°51'4 7.4
2018-Jun-13 23:01N 38°02' W 008°53'4 7.9
2018-Jun-13 22:30N 37°58' W 008°55'3 5.7
2018-Jun-13 22:00N 37°57' W 008°52'0 0.0
2018-Jun-13 12:07N 37°57' W 008°52'0 0.0
2018-Jun-13 12:00N 37°57' W 008°52'0 0.2
2018-Jun-13 11:30N 37°57' W 008°52'0 0.0
2018-Jun-13 11:01N 37°57' W 008°52'0 0.0
2018-Jun-13 10:30N 37°57' W 008°52'1 2.7
2018-Jun-13 10:01N 37°56' W 008°54'3 6.0
2018-Jun-13 09:30N 37°59' W 008°55'0 0.3
2018-Jun-13 09:00N 37°59' W 008°55'1 2.4
2018-Jun-13 08:30N 38°00' W 008°54'0 0.5
2018-Jun-13 08:01N 38°00' W 008°54'0 0.4
2018-Jun-13 07:31N 38°00' W 008°54'0 0.1
2018-Jun-13 07:00N 38°00' W 008°54'2 3.8
2018-Jun-13 06:31N 38°02' W 008°53'5 9.4
2018-Jun-13 06:00N 38°06' W 008°50'4 7.1
2018-Jun-13 05:31N 38°09' W 008°49'2 3.5
2018-Jun-13 05:00N 38°11' W 008°49'5 9.2
2018-Jun-13 04:30N 38°16' W 008°48'3 5.1
2018-Jun-13 03:56N 38°17' W 008°51'3 7.5
2018-Jun-13 03:30N 38°14' W 008°49'2 5.1
2018-Jun-13 03:00N 38°12' W 008°49'1 2.0
2018-Jun-13 02:31N 38°11' W 008°48'4 7.9
2018-Jun-13 02:01N 38°07' W 008°49'4 8.6
2018-Jun-13 01:31N 38°03' W 008°50'4 7.9
2018-Jun-13 01:01N 37°60' W 008°53'3 6.7
2018-Jun-13 00:31N 37°57' W 008°54'2 3.0
2018-Jun-13 00:01N 37°57' W 008°52'0 0.0
2018-Jun-12 23:30N 37°57' W 008°52'0 0.0
2018-Jun-12 23:00N 37°57' W 008°52'0 0.0
2018-Jun-12 11:35N 37°57' W 008°52'0 0.1
2018-Jun-12 11:31N 37°57' W 008°52'0 0.3
2018-Jun-12 11:00N 37°57' W 008°52'0 0.0
2018-Jun-12 10:31N 37°57' W 008°52'4 8.7
2018-Jun-12 10:01N 37°53' W 008°52'4 7.7
2018-Jun-12 09:30N 37°49' W 008°52'1 1.8
2018-Jun-12 09:00N 37°50' W 008°52'0 0.3
2018-Jun-12 08:30N 37°50' W 008°52'0 0.2
2018-Jun-12 08:00N 37°50' W 008°52'0 0.6
2018-Jun-12 07:30N 37°50' W 008°52'1 1.7
2018-Jun-12 07:01N 37°49' W 008°52'2 3.3
2018-Jun-12 06:30N 37°47' W 008°51'5 9.5
2018-Jun-12 06:00N 37°43' W 008°50'1 1.3
2018-Jun-12 05:30N 37°42' W 008°51'2 3.9
2018-Jun-12 05:00N 37°44' W 008°50'2 4.7
2018-Jun-12 04:30N 37°42' W 008°51'2 3.3
2018-Jun-12 04:01N 37°40' W 008°51'1 1.4
2018-Jun-12 03:31N 37°40' W 008°50'4 7.6
2018-Jun-12 03:01N 37°44' W 008°50'4 7.9
2018-Jun-12 02:30N 37°48' W 008°50'4 7.8
2018-Jun-12 02:00N 37°51' W 008°52'4 8.2
2018-Jun-12 01:30N 37°55' W 008°53'2 3.7
2018-Jun-12 01:00N 37°57' W 008°52'0 0.0
2018-Jun-12 00:31N 37°57' W 008°52'0 0.0
2018-Jun-12 00:00N 37°57' W 008°52'0 0.0
2018-Jun-11 23:31N 37°57' W 008°52'0 0.0
2018-Jun-11 23:00N 37°57' W 008°52'0 0.0
2018-Jun-11 22:30N 37°57' W 008°52'0 0.0
2018-Jun-11 22:00N 37°57' W 008°52'0 0.0
2018-Jun-11 21:30N 37°57' W 008°52'0 0.0
2018-Jun-11 21:00N 37°57' W 008°52'  

Dump ship's entire track history